createdAt,value
2022-11-07T00:05:01.166Z,9.52
2022-11-07T00:10:02.851Z,9.38
2022-11-07T00:15:06.036Z,9.31
2022-11-07T00:20:07.989Z,9.26
2022-11-07T00:25:09.625Z,9.21
2022-11-07T00:30:11.555Z,9.22
2022-11-07T00:35:13.172Z,9.16
2022-11-07T00:40:14.593Z,8.92
2022-11-07T00:45:16.109Z,8.86
2022-11-07T00:50:17.860Z,8.71
2022-11-07T00:55:19.429Z,8.65
2022-11-07T01:00:20.913Z,8.58
2022-11-07T01:05:22.290Z,8.53
2022-11-07T01:10:23.696Z,8.47
2022-11-07T01:15:25.294Z,8.61
2022-11-07T01:20:26.677Z,8.65
2022-11-07T01:25:28.117Z,8.63
2022-11-07T01:30:29.541Z,8.61
2022-11-07T01:35:32.712Z,8.65
2022-11-07T01:40:34.588Z,8.74
2022-11-07T01:45:36.129Z,8.78
2022-11-07T01:50:37.564Z,8.84
2022-11-07T01:55:38.995Z,8.79
2022-11-07T02:00:40.417Z,8.81
2022-11-07T02:05:46.937Z,8.95
2022-11-07T02:10:48.560Z,8.91
2022-11-07T02:15:50.289Z,8.80
2022-11-07T02:20:52.220Z,8.64
2022-11-07T02:25:54.672Z,8.71
2022-11-07T02:30:56.067Z,8.82
2022-11-07T02:35:57.705Z,8.71
2022-11-07T02:41:06.723Z,8.66
2022-11-07T02:46:11.571Z,8.62
2022-11-07T02:51:13.875Z,8.67
2022-11-07T02:56:15.372Z,8.53
2022-11-07T03:01:16.860Z,8.49
2022-11-07T03:06:21.451Z,8.46
2022-11-07T03:11:22.870Z,8.37
2022-11-07T03:16:24.296Z,8.36
2022-11-07T03:21:25.748Z,8.23
2022-11-07T03:26:27.180Z,8.19
2022-11-07T03:31:28.572Z,8.19
2022-11-07T03:36:30.052Z,8.12
2022-11-07T03:41:31.455Z,8.50
2022-11-07T03:46:32.863Z,8.83
2022-11-07T03:51:34.325Z,8.91
2022-11-07T03:56:35.707Z,8.98
2022-11-07T04:01:37.224Z,9.13
2022-11-07T04:06:38.995Z,9.26
2022-11-07T04:11:40.362Z,9.35
2022-11-07T04:16:43.175Z,9.38
2022-11-07T04:21:44.585Z,9.31
2022-11-07T04:26:45.969Z,9.26
2022-11-07T04:31:47.349Z,9.15
2022-11-07T04:36:48.749Z,9.08
2022-11-07T04:41:50.132Z,9.10
2022-11-07T04:46:51.542Z,9.12
2022-11-07T04:51:56.856Z,9.12
2022-11-07T04:56:58.248Z,9.07
2022-11-07T05:01:59.779Z,9.06
2022-11-07T05:07:01.261Z,9.07
2022-11-07T05:12:02.900Z,9.07
2022-11-07T05:17:04.314Z,8.98
2022-11-07T05:22:05.696Z,8.93
2022-11-07T05:27:07.107Z,8.94
2022-11-07T05:32:08.496Z,8.95
2022-11-07T05:37:11.476Z,8.94
2022-11-07T05:42:12.860Z,8.83
2022-11-07T05:47:14.585Z,8.86
2022-11-07T05:52:15.979Z,8.86
2022-11-07T05:57:17.373Z,8.84
2022-11-07T06:02:19.109Z,8.84
2022-11-07T06:07:20.671Z,8.84
2022-11-07T06:12:22.069Z,8.82
2022-11-07T06:17:23.573Z,8.76
2022-11-07T06:22:25.360Z,8.70
2022-11-07T06:27:26.734Z,8.73
2022-11-07T06:32:28.567Z,8.69
2022-11-07T06:37:29.957Z,8.73
2022-11-07T06:42:31.379Z,8.79
2022-11-07T06:47:32.754Z,8.80
2022-11-07T06:52:34.196Z,8.81
2022-11-07T06:57:35.620Z,8.88
2022-11-07T07:02:57.458Z,8.91
2022-11-07T07:07:58.390Z,8.96
2022-11-07T07:13:00.851Z,9.00
2022-11-07T07:18:03.109Z,9.07
2022-11-07T07:23:05.850Z,9.17
2022-11-07T07:28:07.476Z,9.24
2022-11-07T07:33:08.883Z,9.40
2022-11-07T07:38:11.549Z,9.62
2022-11-07T07:43:13.074Z,9.77
2022-11-07T07:48:14.774Z,9.86
2022-11-07T07:53:16.856Z,9.97
2022-11-07T07:58:18.487Z,10.16
2022-11-07T08:03:20.302Z,10.31
2022-11-07T08:08:21.961Z,10.46
2022-11-07T08:13:25.033Z,10.63
2022-11-07T08:18:26.535Z,10.79
2022-11-07T08:23:27.998Z,10.98
2022-11-07T08:28:31.707Z,11.16
2022-11-07T08:33:33.334Z,11.45
2022-11-07T08:38:35.798Z,11.85
2022-11-07T08:43:37.172Z,12.04
2022-11-07T08:48:39.791Z,12.13
2022-11-07T08:53:41.297Z,12.20
2022-11-07T08:58:42.677Z,12.27
2022-11-07T09:03:47.541Z,12.41
2022-11-07T09:08:50.506Z,12.56
2022-11-07T09:13:53.385Z,12.76
2022-11-07T09:18:55.228Z,12.92
2022-11-07T09:23:56.638Z,13.10
2022-11-07T09:29:01.136Z,13.24
2022-11-07T09:34:02.872Z,13.47
2022-11-07T09:39:04.398Z,13.72
2022-11-07T09:44:57.777Z,14.00
2022-11-07T09:50:11.797Z,14.32
2022-11-07T09:55:17.145Z,14.65
2022-11-07T10:00:20.521Z,14.82
2022-11-07T10:05:53.960Z,15.04
2022-11-07T10:11:19.573Z,15.18
2022-11-07T10:16:46.121Z,15.38
2022-11-07T10:22:06.273Z,15.71
2022-11-07T10:27:12.114Z,16.18
2022-11-07T10:32:24.759Z,16.35
2022-11-07T10:37:26.215Z,16.41
2022-11-07T10:42:31.129Z,17.21
2022-11-07T10:47:32.516Z,17.76
2022-11-07T10:52:33.951Z,17.21
2022-11-07T10:57:35.808Z,17.00
2022-11-07T11:02:47.063Z,17.68
2022-11-07T11:07:48.773Z,19.48
2022-11-07T11:12:50.524Z,21.72
2022-11-07T11:18:05.743Z,23.17
2022-11-07T11:23:19.607Z,24.22
2022-11-07T11:28:28.954Z,24.32
2022-11-07T11:33:38.663Z,24.55
2022-11-07T11:38:40.834Z,25.34
2022-11-07T11:43:49.332Z,26.44
2022-11-07T11:48:56.954Z,25.61
2022-11-07T11:53:58.332Z,24.69
2022-11-07T11:59:09.410Z,26.23
2022-11-07T12:04:33.672Z,27.32
2022-11-07T12:09:56.913Z,26.94
2022-11-07T12:15:41.142Z,28.02
2022-11-07T12:20:55.543Z,29.27
2022-11-07T12:26:14.785Z,30.54
2022-11-07T12:31:28.217Z,31.73
2022-11-07T12:36:45.540Z,31.07
2022-11-07T12:42:08.470Z,30.03
2022-11-07T12:47:37.545Z,30.35
2022-11-07T12:53:11.852Z,29.93
2022-11-07T12:58:28.979Z,28.43
2022-11-07T13:03:59.261Z,26.99
2022-11-07T13:09:22.443Z,27.58
2022-11-07T13:14:38.161Z,27.00
2022-11-07T13:19:43.089Z,25.18
2022-11-07T13:25:07.506Z,23.37
2022-11-07T13:30:13.601Z,22.76
2022-11-07T13:35:29.297Z,22.87
2022-11-07T13:40:39.867Z,22.89
2022-11-07T13:46:02.638Z,22.65
2022-11-07T13:51:31.560Z,22.38
2022-11-07T13:56:40.067Z,21.73
2022-11-07T14:01:45.581Z,21.00
2022-11-07T14:06:49.242Z,20.33
2022-11-07T14:11:53.173Z,19.82
2022-11-07T14:17:00.499Z,19.41
2022-11-07T14:22:02.206Z,19.13
2022-11-07T14:27:13.969Z,18.85
2022-11-07T14:32:16.958Z,18.57
2022-11-07T14:37:21.872Z,18.22
2022-11-07T14:42:24.686Z,18.00
2022-11-07T14:47:32.721Z,17.70
2022-11-07T14:52:42.426Z,17.44
2022-11-07T14:57:43.865Z,17.29
2022-11-07T15:02:48.628Z,17.17
2022-11-07T15:07:50.408Z,17.01
2022-11-07T15:12:56.647Z,16.77
2022-11-07T15:18:03.965Z,16.59
2022-11-07T15:23:14.193Z,16.36
2022-11-07T15:28:26.165Z,16.18
2022-11-07T15:33:31.278Z,15.83
2022-11-07T15:38:32.707Z,15.67
2022-11-07T15:43:34.159Z,15.52
2022-11-07T15:48:40.752Z,15.23
2022-11-07T15:53:42.778Z,15.14
2022-11-07T15:58:44.229Z,14.96
2022-11-07T16:03:45.704Z,14.55
2022-11-07T16:08:47.189Z,14.25
2022-11-07T16:13:48.611Z,13.96
2022-11-07T16:18:52.079Z,13.82
2022-11-07T16:23:53.495Z,13.77
2022-11-07T16:28:54.966Z,13.54
2022-11-07T16:33:56.348Z,13.35
2022-11-07T16:38:57.901Z,13.14
2022-11-07T16:43:59.860Z,13.00
2022-11-07T16:49:13.425Z,12.95
2022-11-07T16:54:14.866Z,12.87
2022-11-07T16:59:23.527Z,12.72
2022-11-07T17:04:24.910Z,12.75
2022-11-07T17:09:26.313Z,12.54
2022-11-07T17:14:27.705Z,12.28
2022-11-07T17:19:29.144Z,12.20
2022-11-07T17:24:30.891Z,12.13
2022-11-07T17:29:32.330Z,12.01
2022-11-07T17:34:33.733Z,12.05
2022-11-07T17:39:35.156Z,11.91
2022-11-07T17:44:36.611Z,11.93
2022-11-07T17:49:38.029Z,11.80
2022-11-07T17:54:39.449Z,11.62
2022-11-07T17:59:45.630Z,11.50
2022-11-07T18:04:47.564Z,11.50
2022-11-07T18:09:48.969Z,11.52
2022-11-07T18:14:50.384Z,11.34
2022-11-07T18:19:51.840Z,11.04
2022-11-07T18:24:53.277Z,10.89
2022-11-07T18:29:54.726Z,10.85
2022-11-07T18:34:56.245Z,10.82
2022-11-07T18:39:57.696Z,10.96
2022-11-07T18:44:59.153Z,10.99
2022-11-07T18:50:00.587Z,10.98
2022-11-07T18:55:01.979Z,10.96
2022-11-07T19:00:07.856Z,11.02
2022-11-07T19:05:12.080Z,11.00
2022-11-07T19:10:14.623Z,10.95
2022-11-07T19:15:16.077Z,10.66
2022-11-07T19:20:17.476Z,10.37
2022-11-07T19:25:18.867Z,10.33
2022-11-07T19:30:20.295Z,10.13
2022-11-07T19:35:21.688Z,10.02
2022-11-07T19:40:23.366Z,10.07
2022-11-07T19:45:25.732Z,9.89
2022-11-07T19:50:27.120Z,9.84
2022-11-07T19:55:28.545Z,9.65
2022-11-07T20:00:30.186Z,9.61
2022-11-07T20:05:31.646Z,9.60
2022-11-07T20:10:33.742Z,9.53
2022-11-07T20:15:39.228Z,9.48
2022-11-07T20:20:40.644Z,9.45
2022-11-07T20:25:42.968Z,9.46
2022-11-07T20:30:44.381Z,9.46
2022-11-07T20:35:45.804Z,9.33
2022-11-07T20:40:47.208Z,9.36
2022-11-07T20:45:49.085Z,9.18
2022-11-07T20:50:50.502Z,9.08
2022-11-07T20:55:51.923Z,9.04
2022-11-07T21:00:53.398Z,9.05
2022-11-07T21:05:55.157Z,9.06
2022-11-07T21:10:56.580Z,9.11
2022-11-07T21:15:57.987Z,9.07
2022-11-07T21:21:10.900Z,8.92
2022-11-07T21:26:18.282Z,8.94
2022-11-07T21:31:23.823Z,8.79
2022-11-07T21:36:27.903Z,8.71
2022-11-07T21:41:29.938Z,8.70
2022-11-07T21:46:31.893Z,8.64
2022-11-07T21:51:34.885Z,8.54
2022-11-07T21:56:38.497Z,8.49
2022-11-07T22:01:41.197Z,8.32
2022-11-07T22:06:44.837Z,8.35
2022-11-07T22:11:47.109Z,8.33
2022-11-07T22:16:49.840Z,8.04
2022-11-07T22:21:51.314Z,7.91
2022-11-07T22:26:55.672Z,7.88
2022-11-07T22:31:57.238Z,7.77
2022-11-07T22:36:58.655Z,7.77
2022-11-07T22:42:00.069Z,7.65
2022-11-07T22:47:01.462Z,7.63
2022-11-07T22:52:02.898Z,7.59
2022-11-07T22:57:04.337Z,7.59
2022-11-07T23:02:05.853Z,7.48
2022-11-07T23:07:07.360Z,7.48
2022-11-07T23:12:08.861Z,7.50
2022-11-07T23:17:10.268Z,7.53
2022-11-07T23:22:11.679Z,7.52
2022-11-07T23:27:13.137Z,7.61
2022-11-07T23:32:14.551Z,7.53
2022-11-07T23:37:15.952Z,7.43
2022-11-07T23:42:17.382Z,7.29
2022-11-07T23:47:18.813Z,7.30
2022-11-07T23:52:20.653Z,7.27
2022-11-07T23:57:22.156Z,7.26
